createdAt,value
2019-04-29T00:00:11.207Z,13.80
2019-04-29T00:02:43.717Z,13.07
2019-04-29T00:05:15.076Z,12.10
2019-04-29T00:07:46.022Z,14.10
2019-04-29T00:10:21.758Z,12.80
2019-04-29T00:12:53.198Z,13.50
2019-04-29T00:15:43.252Z,12.80
2019-04-29T00:18:22.150Z,12.50
2019-04-29T00:20:53.905Z,14.57
2019-04-29T00:23:24.894Z,12.57
2019-04-29T00:25:56.416Z,14.03
2019-04-29T00:28:27.412Z,14.10
2019-04-29T00:30:58.505Z,13.40
2019-04-29T00:33:29.596Z,13.67
2019-04-29T00:36:00.718Z,13.13
2019-04-29T00:38:57.087Z,12.80
2019-04-29T00:41:41.454Z,13.07
2019-04-29T00:44:14.604Z,12.33
2019-04-29T00:46:46.032Z,12.07
2019-04-29T00:49:17.827Z,12.77
2019-04-29T00:51:49.150Z,12.40
2019-04-29T00:54:37.966Z,12.87
2019-04-29T00:57:08.949Z,12.03
2019-04-29T00:59:40.275Z,12.30
2019-04-29T01:02:11.337Z,12.23
2019-04-29T01:04:42.338Z,11.87
2019-04-29T01:07:13.480Z,11.90
2019-04-29T01:09:44.518Z,11.63
2019-04-29T01:12:15.517Z,12.60
2019-04-29T01:14:46.545Z,12.00
2019-04-29T01:17:17.598Z,12.40
2019-04-29T01:19:48.666Z,11.93
2019-04-29T01:22:19.615Z,13.50
2019-04-29T01:24:50.884Z,12.67
2019-04-29T01:27:29.701Z,13.20
2019-04-29T01:30:01.155Z,12.47
2019-04-29T01:32:32.613Z,13.23
2019-04-29T01:35:04.403Z,12.53
2019-04-29T01:37:42.790Z,11.63
2019-04-29T01:40:31.427Z,13.43
2019-04-29T01:43:02.483Z,14.13
2019-04-29T01:45:34.531Z,14.07
2019-04-29T01:48:06.648Z,14.23
2019-04-29T01:50:37.658Z,13.03
2019-04-29T01:53:08.691Z,13.07
2019-04-29T01:55:39.685Z,13.50
2019-04-29T01:58:10.619Z,12.50
2019-04-29T02:00:41.937Z,12.37
2019-04-29T02:03:13.234Z,11.97
2019-04-29T02:05:44.336Z,13.40
2019-04-29T02:08:15.352Z,11.80
2019-04-29T02:10:46.700Z,12.40
2019-04-29T02:13:17.715Z,13.47
2019-04-29T02:15:49.803Z,13.93
2019-04-29T02:18:21.052Z,12.70
2019-04-29T02:20:52.153Z,13.23
2019-04-29T02:23:35.254Z,12.67
2019-04-29T02:26:07.383Z,12.03
2019-04-29T02:28:38.361Z,12.60
2019-04-29T02:31:27.022Z,12.13
2019-04-29T02:33:58.154Z,12.73
2019-04-29T02:36:30.113Z,11.67
2019-04-29T02:39:20.727Z,13.13
2019-04-29T02:42:20.596Z,12.83
2019-04-29T02:44:52.534Z,11.90
2019-04-29T02:47:23.928Z,12.60
2019-04-29T02:49:54.982Z,13.03
2019-04-29T02:52:25.935Z,13.33
2019-04-29T02:54:59.854Z,12.60
2019-04-29T02:57:55.874Z,12.40
2019-04-29T03:00:46.190Z,11.57
2019-04-29T03:03:23.682Z,12.07
2019-04-29T03:05:58.790Z,12.27
2019-04-29T03:08:29.775Z,11.30
2019-04-29T03:11:00.843Z,12.37
2019-04-29T03:13:31.888Z,11.17
2019-04-29T03:16:03.560Z,11.07
2019-04-29T03:18:36.498Z,11.03
2019-04-29T03:21:18.884Z,11.57
2019-04-29T03:23:50.008Z,11.93
2019-04-29T03:26:21.008Z,10.93
2019-04-29T03:28:53.050Z,11.37
2019-04-29T03:31:24.098Z,11.17
2019-04-29T03:33:55.896Z,12.57
2019-04-29T03:36:26.898Z,12.80
2019-04-29T03:38:58.146Z,11.90
2019-04-29T03:41:29.202Z,13.77
2019-04-29T03:44:00.228Z,13.07
2019-04-29T03:46:31.307Z,13.80
2019-04-29T03:49:02.205Z,12.67
2019-04-29T03:51:33.286Z,13.33
2019-04-29T03:54:04.300Z,11.83
2019-04-29T03:56:35.382Z,12.80
2019-04-29T03:59:06.386Z,12.03
2019-04-29T04:01:43.086Z,12.17
2019-04-29T04:04:34.420Z,12.20
2019-04-29T04:07:23.110Z,12.03
2019-04-29T04:09:54.161Z,11.53
2019-04-29T04:12:25.485Z,11.87
2019-04-29T04:14:56.595Z,12.00
2019-04-29T04:17:56.120Z,12.20
2019-04-29T04:20:27.551Z,11.57
2019-04-29T04:22:59.592Z,11.93
2019-04-29T04:25:31.048Z,13.17
2019-04-29T04:28:02.075Z,12.93
2019-04-29T04:30:33.109Z,12.33
2019-04-29T04:33:04.033Z,12.73
2019-04-29T04:35:35.277Z,12.43
2019-04-29T04:38:06.272Z,12.00
2019-04-29T04:40:41.645Z,11.97
2019-04-29T04:43:12.658Z,12.17
2019-04-29T04:45:43.743Z,11.73
2019-04-29T04:48:15.813Z,11.97
2019-04-29T04:50:46.860Z,11.77
2019-04-29T04:53:18.260Z,12.57
2019-04-29T04:55:51.722Z,11.97
2019-04-29T04:58:22.833Z,12.77
2019-04-29T05:00:54.206Z,11.63
2019-04-29T05:03:25.278Z,11.70
2019-04-29T05:05:56.588Z,11.97
2019-04-29T05:08:27.932Z,11.33
2019-04-29T05:10:58.983Z,11.13
2019-04-29T05:13:30.000Z,10.57
2019-04-29T05:16:12.453Z,10.90
2019-04-29T05:18:43.745Z,11.13
2019-04-29T05:21:14.661Z,11.47
2019-04-29T05:23:45.673Z,13.50
2019-04-29T05:26:16.954Z,14.47
2019-04-29T05:28:47.862Z,14.70
2019-04-29T05:31:18.787Z,17.90
2019-04-29T05:33:55.925Z,17.07
2019-04-29T05:36:39.743Z,17.20
2019-04-29T05:39:23.163Z,23.23
2019-04-29T05:41:54.638Z,19.57
2019-04-29T05:44:43.471Z,21.60
2019-04-29T05:47:20.610Z,21.50
2019-04-29T05:50:11.843Z,20.87
2019-04-29T05:52:51.040Z,19.47
2019-04-29T05:55:22.007Z,18.43
2019-04-29T05:57:55.874Z,18.53
2019-04-29T06:00:27.355Z,17.87
2019-04-29T06:02:58.442Z,19.00
2019-04-29T06:05:31.735Z,21.40
2019-04-29T06:08:04.539Z,23.57
2019-04-29T06:10:35.834Z,22.33
2019-04-29T06:13:07.116Z,22.50
2019-04-29T06:15:38.069Z,23.03
2019-04-29T06:18:09.350Z,21.63
2019-04-29T06:20:40.669Z,22.27
2019-04-29T06:23:11.777Z,22.80
2019-04-29T06:25:42.833Z,21.33
2019-04-29T06:28:14.181Z,22.70
2019-04-29T06:30:50.234Z,22.20
2019-04-29T06:33:19.919Z,22.97
2019-04-29T06:35:51.031Z,22.83
2019-04-29T06:38:22.059Z,23.80
2019-04-29T06:40:54.733Z,21.07
2019-04-29T06:43:28.790Z,22.83
2019-04-29T06:45:58.497Z,22.60
2019-04-29T06:48:29.455Z,23.70
2019-04-29T06:51:01.743Z,24.10
2019-04-29T06:53:33.203Z,23.90
2019-04-29T06:56:09.277Z,23.80
2019-04-29T06:58:40.932Z,24.37
2019-04-29T07:01:11.947Z,24.20
2019-04-29T07:03:47.110Z,23.03
2019-04-29T07:06:18.082Z,22.97
2019-04-29T07:08:49.029Z,22.23
2019-04-29T07:11:20.349Z,23.53
2019-04-29T07:13:53.416Z,23.10
2019-04-29T07:16:31.950Z,24.57
2019-04-29T07:19:01.744Z,22.70
2019-04-29T07:21:34.846Z,26.48
2019-04-29T07:24:06.202Z,25.73
2019-04-29T07:26:37.544Z,25.43
2019-04-29T07:29:08.520Z,24.63
2019-04-29T07:31:39.797Z,23.63
2019-04-29T07:34:10.762Z,23.43
2019-04-29T07:36:42.108Z,21.57
2019-04-29T07:39:13.523Z,21.67
2019-04-29T07:41:44.980Z,21.27
2019-04-29T07:44:18.408Z,20.97
2019-04-29T07:46:56.631Z,23.17
2019-04-29T07:49:24.738Z,21.07
2019-04-29T07:51:55.800Z,21.50
2019-04-29T07:54:27.091Z,21.23
2019-04-29T07:57:01.578Z,20.97
2019-04-29T07:59:33.904Z,19.27
2019-04-29T08:02:05.665Z,20.70
2019-04-29T08:04:36.645Z,18.23
2019-04-29T08:07:07.680Z,18.30
2019-04-29T08:09:44.278Z,17.50
2019-04-29T08:12:14.426Z,17.20
2019-04-29T08:14:48.015Z,17.47
2019-04-29T08:17:19.124Z,17.80
2019-04-29T08:19:50.073Z,18.40
2019-04-29T08:22:22.856Z,17.10
2019-04-29T08:24:55.011Z,16.03
2019-04-29T08:27:39.268Z,16.43
2019-04-29T08:30:06.754Z,16.20
2019-04-29T08:32:38.614Z,14.53
2019-04-29T08:35:10.451Z,14.40
2019-04-29T08:37:41.550Z,15.67
2019-04-29T08:40:16.503Z,15.97
2019-04-29T08:42:52.550Z,16.37
2019-04-29T08:45:39.046Z,17.77
2019-04-29T08:48:10.174Z,15.27
2019-04-29T08:50:41.573Z,14.83
2019-04-29T08:53:12.937Z,15.30
2019-04-29T08:55:43.959Z,15.80
2019-04-29T08:58:14.905Z,14.30
2019-04-29T09:00:45.968Z,16.50
2019-04-29T09:03:18.895Z,14.43
2019-04-29T09:06:04.128Z,14.30
2019-04-29T09:08:23.118Z,13.10
2019-04-29T09:10:54.093Z,11.93
2019-04-29T09:13:25.150Z,12.33
2019-04-29T09:15:56.627Z,12.40
2019-04-29T09:18:27.714Z,16.30
2019-04-29T09:20:58.626Z,13.80
2019-04-29T09:23:31.779Z,12.97
2019-04-29T09:26:24.098Z,14.00
2019-04-29T09:28:53.958Z,13.53
2019-04-29T09:31:24.964Z,13.33
2019-04-29T09:34:06.331Z,12.73
2019-04-29T09:36:29.067Z,11.80
2019-04-29T09:39:00.219Z,12.70
2019-04-29T09:41:38.625Z,12.57
2019-04-29T09:44:40.326Z,11.63
2019-04-29T09:47:10.486Z,9.07
2019-04-29T09:49:41.555Z,9.20
2019-04-29T09:52:12.672Z,9.93
2019-04-29T09:54:43.580Z,10.30
2019-04-29T09:57:14.585Z,10.07
2019-04-29T09:59:50.598Z,10.73
2019-04-29T10:02:31.199Z,9.90
2019-04-29T10:05:29.685Z,10.57
2019-04-29T10:08:00.746Z,9.80
2019-04-29T10:10:32.997Z,10.60
2019-04-29T10:13:04.336Z,10.07
2019-04-29T10:16:00.386Z,10.10
2019-04-29T10:18:34.500Z,10.50
2019-04-29T10:21:08.677Z,9.80
2019-04-29T10:23:39.985Z,9.90
2019-04-29T10:26:10.986Z,10.30
2019-04-29T10:29:01.558Z,11.13
2019-04-29T10:31:32.622Z,9.80
2019-04-29T10:34:03.627Z,9.93
2019-04-29T10:36:34.777Z,8.70
2019-04-29T10:39:42.475Z,8.20
2019-04-29T10:42:15.646Z,8.40
2019-04-29T10:45:04.645Z,8.10
2019-04-29T10:47:43.135Z,8.60
2019-04-29T10:50:18.975Z,8.43
2019-04-29T10:52:50.480Z,8.53
2019-04-29T10:55:25.501Z,8.27
2019-04-29T10:57:55.235Z,7.97
2019-04-29T11:00:57.409Z,7.60
2019-04-29T11:03:28.985Z,7.50
2019-04-29T11:06:01.825Z,6.53
2019-04-29T11:08:51.820Z,5.83
2019-04-29T11:11:27.075Z,5.63
2019-04-29T11:13:57.591Z,4.90
2019-04-29T11:16:45.327Z,5.60
2019-04-29T11:19:05.300Z,5.20
2019-04-29T11:21:38.873Z,6.40
2019-04-29T11:24:27.139Z,6.20
2019-04-29T11:27:18.304Z,6.30
2019-04-29T11:29:49.303Z,5.60
2019-04-29T11:32:29.182Z,5.33
2019-04-29T11:35:24.507Z,5.37
2019-04-29T11:37:59.654Z,6.10
2019-04-29T11:40:42.589Z,5.30
2019-04-29T11:43:01.602Z,5.57
2019-04-29T11:45:38.541Z,5.77
2019-04-29T11:48:07.140Z,5.37
2019-04-29T11:57:40.620Z,4.50
2019-04-29T12:00:26.224Z,5.27
2019-04-29T12:03:00.673Z,4.50
2019-04-29T12:05:45.029Z,5.00
2019-04-29T12:08:17.044Z,4.83
2019-04-29T12:11:05.333Z,4.50
2019-04-29T12:13:28.346Z,4.80
2019-04-29T12:16:08.328Z,4.57
2019-04-29T12:18:44.231Z,4.93
2019-04-29T12:21:25.457Z,4.50
2019-04-29T12:23:57.826Z,4.80
2019-04-29T12:26:28.909Z,4.80
2019-04-29T12:28:59.989Z,5.13
2019-04-29T12:31:41.062Z,4.50
2019-04-29T12:34:26.744Z,4.53
2019-04-29T12:36:57.555Z,6.00
2019-04-29T12:39:47.174Z,5.00
2019-04-29T12:42:40.229Z,5.70
2019-04-29T12:45:29.293Z,4.50
2019-04-29T12:48:00.390Z,4.30
2019-04-29T12:50:31.869Z,4.40
2019-04-29T12:53:03.305Z,4.57
2019-04-29T12:55:45.026Z,3.97
2019-04-29T12:58:12.216Z,3.53
2019-04-29T13:00:48.126Z,4.50
2019-04-29T13:03:41.104Z,4.00
2019-04-29T13:06:24.151Z,4.47
2019-04-29T13:08:55.969Z,4.63
2019-04-29T13:11:36.094Z,5.10
2019-04-29T13:14:01.780Z,5.17
2019-04-29T13:16:43.394Z,5.93
2019-04-29T13:19:20.329Z,5.07
2019-04-29T13:21:50.940Z,5.07
2019-04-29T13:24:24.484Z,5.20
2019-04-29T13:26:54.919Z,5.60
2019-04-29T13:29:27.646Z,5.90
2019-04-29T13:32:01.668Z,4.73
2019-04-29T13:34:35.755Z,5.57
2019-04-29T13:37:08.251Z,6.00
2019-04-29T13:39:40.788Z,5.90
2019-04-29T13:42:15.622Z,6.07
2019-04-29T13:45:05.353Z,5.27
2019-04-29T13:47:54.371Z,5.43
2019-04-29T13:50:47.344Z,5.43
2019-04-29T13:53:19.816Z,6.17
2019-04-29T13:56:10.043Z,5.73
2019-04-29T13:58:27.186Z,6.07
2019-04-29T14:01:22.064Z,6.30
2019-04-29T14:03:50.773Z,6.10
2019-04-29T14:06:22.236Z,7.57
2019-04-29T14:08:54.233Z,7.87
2019-04-29T14:11:26.044Z,7.37
2019-04-29T14:13:58.062Z,7.27
2019-04-29T14:16:29.135Z,7.37
2019-04-29T14:19:00.205Z,8.40
2019-04-29T14:21:31.910Z,7.47
2019-04-29T14:24:03.813Z,6.97
2019-04-29T14:26:36.953Z,7.03
2019-04-29T14:29:07.699Z,7.50
2019-04-29T14:31:40.101Z,7.20
2019-04-29T14:34:20.412Z,7.20
2019-04-29T14:36:51.409Z,7.20
2019-04-29T14:39:36.536Z,6.53
2019-04-29T14:41:59.500Z,6.90
2019-04-29T14:44:49.523Z,7.50
2019-04-29T14:47:45.027Z,7.57
2019-04-29T14:50:20.519Z,7.57
2019-04-29T14:52:50.662Z,8.10
2019-04-29T14:55:25.214Z,7.40
2019-04-29T14:57:54.477Z,7.60
2019-04-29T15:00:37.725Z,7.30
2019-04-29T15:03:08.799Z,7.13
2019-04-29T15:05:40.390Z,7.00
2019-04-29T15:08:11.488Z,8.00
2019-04-29T15:10:43.985Z,8.10
2019-04-29T15:13:20.994Z,8.13
2019-04-29T15:16:09.534Z,7.83
2019-04-29T15:19:02.422Z,8.13
2019-04-29T15:21:45.048Z,8.47
2019-04-29T15:24:17.508Z,7.43
2019-04-29T15:26:48.141Z,7.87
2019-04-29T15:29:19.234Z,16.60
2019-04-29T15:31:50.347Z,8.63
2019-04-29T15:34:21.689Z,8.07
2019-04-29T15:36:53.141Z,7.90
2019-04-29T15:39:25.446Z,7.40
2019-04-29T15:41:57.346Z,7.73
2019-04-29T15:44:28.491Z,8.90
2019-04-29T15:46:59.576Z,8.70
2019-04-29T15:49:30.560Z,7.90
2019-04-29T15:52:01.956Z,7.23
2019-04-29T15:54:33.112Z,8.03
2019-04-29T15:57:09.266Z,7.37
2019-04-29T15:59:48.634Z,7.20
2019-04-29T16:02:10.097Z,7.90
2019-04-29T16:04:47.422Z,7.27
2019-04-29T16:07:51.506Z,7.03
2019-04-29T16:10:38.206Z,8.53
2019-04-29T16:13:10.384Z,9.27
2019-04-29T16:15:42.805Z,9.90
2019-04-29T16:18:14.835Z,9.83
2019-04-29T16:20:46.130Z,9.47
2019-04-29T16:23:18.566Z,9.73
2019-04-29T16:25:52.430Z,10.27
2019-04-29T16:28:24.224Z,9.77
2019-04-29T16:30:54.982Z,9.77
2019-04-29T16:33:26.092Z,9.40
2019-04-29T16:35:57.566Z,9.73
2019-04-29T16:38:29.881Z,11.03
2019-04-29T16:41:19.491Z,9.47
2019-04-29T16:43:50.769Z,9.30
2019-04-29T16:48:57.907Z,10.23
2019-04-29T16:51:28.984Z,9.53
2019-04-29T16:54:00.452Z,11.23
2019-04-29T16:56:31.973Z,10.80
2019-04-29T16:59:09.349Z,11.17
2019-04-29T17:01:36.060Z,10.63
2019-04-29T17:04:07.140Z,11.90
2019-04-29T17:06:41.638Z,11.73
2019-04-29T17:09:45.149Z,10.50
2019-04-29T17:12:16.157Z,11.90
2019-04-29T17:15:02.986Z,12.37
2019-04-29T17:17:29.261Z,11.90
2019-04-29T17:19:57.701Z,13.67
2019-04-29T17:22:28.768Z,12.43
2019-04-29T17:25:00.099Z,12.23
2019-04-29T17:27:42.192Z,11.90
2019-04-29T17:30:38.263Z,12.00
2019-04-29T17:33:32.670Z,11.70
2019-04-29T17:35:15.895Z,8.93
2019-04-29T17:36:04.797Z,11.17
2019-04-29T17:38:36.283Z,11.37
2019-04-29T17:41:07.619Z,11.73
2019-04-29T17:44:18.810Z,13.00
2019-04-29T17:46:56.325Z,11.97
2019-04-29T17:49:34.048Z,11.20
2019-04-29T17:52:09.015Z,12.50
2019-04-29T17:54:42.289Z,13.20
2019-04-29T17:57:36.401Z,12.97
2019-04-29T18:00:43.977Z,14.23
2019-04-29T18:03:41.413Z,16.20
2019-04-29T18:06:28.096Z,15.63
2019-04-29T18:09:29.673Z,14.90
2019-04-29T18:12:11.539Z,17.43
2019-04-29T18:14:42.584Z,16.03
2019-04-29T18:17:24.242Z,16.73
2019-04-29T18:20:13.608Z,16.37
2019-04-29T18:23:21.704Z,16.37
2019-04-29T18:26:05.720Z,15.80
2019-04-29T18:28:37.417Z,15.43
2019-04-29T18:31:10.354Z,15.10
2019-04-29T18:33:41.376Z,14.63
2019-04-29T18:36:22.011Z,13.43
2019-04-29T18:38:47.548Z,13.33
2019-04-29T18:41:24.691Z,12.30
2019-04-29T18:43:56.391Z,12.53
2019-04-29T18:46:25.939Z,11.43
2019-04-29T18:49:02.981Z,11.40
2019-04-29T18:51:30.873Z,11.40
2019-04-29T18:54:01.975Z,11.13
2019-04-29T18:56:36.372Z,12.07
2019-04-29T18:59:06.839Z,10.87
2019-04-29T19:01:37.972Z,10.60
2019-04-29T19:04:36.059Z,10.73
2019-04-29T19:07:07.594Z,10.37
2019-04-29T19:09:39.568Z,10.37
2019-04-29T19:12:11.112Z,9.83
2019-04-29T19:14:45.325Z,10.27
2019-04-29T19:17:16.232Z,10.57
2019-04-29T19:19:48.767Z,9.90
2019-04-29T19:22:19.784Z,10.07
2019-04-29T19:24:51.361Z,10.03
2019-04-29T19:27:22.435Z,10.10
2019-04-29T19:29:55.059Z,9.93
2019-04-29T19:32:26.211Z,9.60
2019-04-29T19:34:58.393Z,9.53
2019-04-29T19:37:32.373Z,9.13
2019-04-29T19:40:02.742Z,9.37
2019-04-29T19:42:36.002Z,9.30
2019-04-29T19:45:13.151Z,8.50
2019-04-29T19:47:39.563Z,9.17
2019-04-29T19:50:17.959Z,8.70
2019-04-29T19:52:55.500Z,8.67
2019-04-29T19:55:27.853Z,8.13
2019-04-29T19:57:59.506Z,9.33
2019-04-29T20:00:32.091Z,8.63
2019-04-29T20:03:18.358Z,8.57
2019-04-29T20:05:43.612Z,8.13
2019-04-29T20:08:37.641Z,8.83
2019-04-29T20:10:51.515Z,8.23
2019-04-29T20:13:30.675Z,8.10
2019-04-29T20:16:10.871Z,8.07
2019-04-29T20:18:58.433Z,7.63
2019-04-29T20:21:28.194Z,8.23
2019-04-29T20:23:53.278Z,8.37
2019-04-29T20:26:29.674Z,8.07
2019-04-29T20:28:57.466Z,7.90
2019-04-29T20:31:28.696Z,7.80
2019-04-29T20:34:01.561Z,8.00
2019-04-29T20:36:41.749Z,7.17
2019-04-29T20:39:15.103Z,7.40
2019-04-29T20:41:44.563Z,7.67
2019-04-29T20:44:16.052Z,7.37
2019-04-29T20:47:12.723Z,7.33
2019-04-29T20:49:20.083Z,7.77
2019-04-29T20:51:55.761Z,8.00
2019-04-29T20:54:28.637Z,8.90
2019-04-29T20:57:04.954Z,8.20
2019-04-29T20:59:33.496Z,7.87
2019-04-29T21:02:12.534Z,7.27
2019-04-29T21:04:46.544Z,7.23
2019-04-29T21:07:18.430Z,9.07
2019-04-29T21:09:46.477Z,8.17
2019-04-29T21:12:36.648Z,8.10
2019-04-29T21:15:14.986Z,7.30
2019-04-29T21:17:45.222Z,7.90
2019-04-29T21:20:17.850Z,8.87
2019-04-29T21:22:52.446Z,9.00
2019-04-29T21:25:24.676Z,8.30
2019-04-29T21:27:58.171Z,8.83
2019-04-29T21:30:35.437Z,8.90
2019-04-29T21:33:00.607Z,9.73
2019-04-29T21:35:39.586Z,9.53
2019-04-29T21:38:35.985Z,8.93
2019-04-29T21:41:10.823Z,8.87
2019-04-29T21:43:46.423Z,8.87
2019-04-29T21:46:18.027Z,9.17
2019-04-29T21:48:48.351Z,9.47
2019-04-29T21:51:19.316Z,9.80
2019-04-29T21:53:50.645Z,9.60
2019-04-29T21:56:21.603Z,10.47
2019-04-29T21:58:53.050Z,10.10
2019-04-29T22:01:25.183Z,10.00
2019-04-29T22:03:57.765Z,10.30
2019-04-29T22:06:30.147Z,10.03
2019-04-29T22:09:02.638Z,9.47
2019-04-29T22:11:36.114Z,10.40
2019-04-29T22:14:09.916Z,10.70
2019-04-29T22:16:41.042Z,10.30
2019-04-29T22:19:12.058Z,10.97
2019-04-29T22:21:43.192Z,10.80
2019-04-29T22:24:14.581Z,10.50
2019-04-29T22:26:45.972Z,10.50
2019-04-29T22:29:17.383Z,11.57
2019-04-29T22:31:48.442Z,11.40
2019-04-29T22:34:20.002Z,12.27
2019-04-29T22:36:52.628Z,11.33
2019-04-29T22:39:26.802Z,11.33
2019-04-29T22:42:23.605Z,11.50
2019-04-29T22:44:57.316Z,11.33
2019-04-29T22:47:27.822Z,11.80
2019-04-29T22:50:03.153Z,11.80
2019-04-29T22:52:32.053Z,11.43
2019-04-29T22:55:03.201Z,11.70
2019-04-29T22:57:34.580Z,12.47
2019-04-29T23:00:06.896Z,11.50
2019-04-29T23:02:39.456Z,11.53
2019-04-29T23:05:10.951Z,11.67
2019-04-29T23:07:42.420Z,11.87
2019-04-29T23:10:13.368Z,12.60
2019-04-29T23:12:45.120Z,12.10
2019-04-29T23:15:22.532Z,12.47
2019-04-29T23:17:50.855Z,12.63
2019-04-29T23:20:49.939Z,13.97
2019-04-29T23:23:32.974Z,12.37
2019-04-29T23:26:03.765Z,12.93
2019-04-29T23:28:32.792Z,12.53
2019-04-29T23:31:15.642Z,13.20
2019-04-29T23:33:46.717Z,13.13
2019-04-29T23:36:17.803Z,12.23
2019-04-29T23:38:49.224Z,13.63
2019-04-29T23:41:20.174Z,13.90
2019-04-29T23:43:51.190Z,12.97
2019-04-29T23:46:22.166Z,12.27
2019-04-29T23:48:56.502Z,12.83
2019-04-29T23:51:33.756Z,11.23
2019-04-29T23:54:03.739Z,12.43
2019-04-29T23:56:38.572Z,12.23
2019-04-29T23:59:18.531Z,12.70
